sensor_id;sensor_type;location;lat;lon;timestamp;temperature;humidity
5980;DHT22;3016;50.308;8.258;2022-09-25T10:45:37;12.30;37.10
5980;DHT22;3016;50.308;8.258;2022-09-25T10:48:40;12.30;38.50
5980;DHT22;3016;50.308;8.258;2022-09-25T10:52:02;12.30;38.10
5980;DHT22;3016;50.308;8.258;2022-09-25T10:55:33;12.30;41.00
5980;DHT22;3016;50.308;8.258;2022-09-25T10:58:44;12.20;45.70
5980;DHT22;3016;50.308;8.258;2022-09-25T11:01:52;12.20;49.50
5980;DHT22;3016;50.308;8.258;2022-09-25T11:04:55;12.20;53.70
5980;DHT22;3016;50.308;8.258;2022-09-25T11:08:01;12.10;53.70
5980;DHT22;3016;50.308;8.258;2022-09-25T11:11:05;12.10;55.40
5980;DHT22;3016;50.308;8.258;2022-09-25T11:14:27;12.00;53.80
5980;DHT22;3016;50.308;8.258;2022-09-25T11:17:36;12.10;57.70
5980;DHT22;3016;50.308;8.258;2022-09-25T11:20:37;12.10;59.00
5980;DHT22;3016;50.308;8.258;2022-09-25T11:24:03;12.10;58.50
5980;DHT22;3016;50.308;8.258;2022-09-25T11:30:21;12.00;60.40
5980;DHT22;3016;50.308;8.258;2022-09-25T11:33:48;11.90;59.40
5980;DHT22;3016;50.308;8.258;2022-09-25T11:40:17;12.00;64.60
5980;DHT22;3016;50.308;8.258;2022-09-25T11:44:00;12.00;65.00
5980;DHT22;3016;50.308;8.258;2022-09-25T11:47:25;11.90;61.90
5980;DHT22;3016;50.308;8.258;2022-09-25T11:50:51;11.90;61.60
5980;DHT22;3016;50.308;8.258;2022-09-25T11:54:16;12.00;63.80
5980;DHT22;3016;50.308;8.258;2022-09-25T12:01:51;12.20;66.00
5980;DHT22;3016;50.308;8.258;2022-09-25T12:12:58;12.10;58.30
5980;DHT22;3016;50.308;8.258;2022-09-25T12:16:16;12.10;52.70
5980;DHT22;3016;50.308;8.258;2022-09-25T12:23:13;12.10;48.20
5980;DHT22;3016;50.308;8.258;2022-09-25T12:30:06;12.10;44.90
5980;DHT22;3016;50.308;8.258;2022-09-25T12:36:51;12.20;48.40
5980;DHT22;3016;50.308;8.258;2022-09-25T12:39:59;12.30;49.00
5980;DHT22;3016;50.308;8.258;2022-09-25T12:46:24;12.30;46.20
5980;DHT22;3016;50.308;8.258;2022-09-25T12:49:37;12.30;43.90
5980;DHT22;3016;50.308;8.258;2022-09-25T12:52:52;12.30;42.90
5980;DHT22;3016;50.308;8.258;2022-09-25T12:59:38;12.40;41.70
5980;DHT22;3016;50.308;8.258;2022-09-25T13:03:16;12.30;34.50
5980;DHT22;3016;50.308;8.258;2022-09-25T13:06:44;12.30;36.50
5980;DHT22;3016;50.308;8.258;2022-09-25T13:09:45;12.30;34.20
5980;DHT22;3016;50.308;8.258;2022-09-25T13:12:47;12.20;34.10
5980;DHT22;3016;50.308;8.258;2022-09-25T13:15:58;12.10;34.60
5980;DHT22;3016;50.308;8.258;2022-09-25T13:19:26;12.10;37.70
5980;DHT22;3016;50.308;8.258;2022-09-25T13:22:28;12.00;42.70
5980;DHT22;3016;50.308;8.258;2022-09-25T13:25:47;12.00;46.70
5980;DHT22;3016;50.308;8.258;2022-09-25T13:29:06;12.00;48.50
5980;DHT22;3016;50.308;8.258;2022-09-25T13:32:29;12.00;51.40
5980;DHT22;3016;50.308;8.258;2022-09-25T13:35:37;12.00;54.70
5980;DHT22;3016;50.308;8.258;2022-09-25T13:38:40;12.10;58.90
5980;DHT22;3016;50.308;8.258;2022-09-25T13:42:07;12.20;62.90
5980;DHT22;3016;50.308;8.258;2022-09-25T13:45:33;12.40;66.40
5980;DHT22;3016;50.308;8.258;2022-09-25T13:48:34;12.40;62.50
5980;DHT22;3016;50.308;8.258;2022-09-25T13:51:36;12.40;61.70
5980;DHT22;3016;50.308;8.258;2022-09-25T13:54:37;12.60;63.90
5980;DHT22;3016;50.308;8.258;2022-09-25T14:01:01;12.90;65.80
5980;DHT22;3016;50.308;8.258;2022-09-25T14:04:33;12.80;51.90
5980;DHT22;3016;50.308;8.258;2022-09-25T14:07:35;12.90;52.50
5980;DHT22;3016;50.308;8.258;2022-09-25T14:10:43;12.90;51.00
5980;DHT22;3016;50.308;8.258;2022-09-25T14:13:51;13.00;51.40
5980;DHT22;3016;50.308;8.258;2022-09-25T14:16:55;13.10;47.50
5980;DHT22;3016;50.308;8.258;2022-09-25T14:20:28;13.10;37.40
5980;DHT22;3016;50.308;8.258;2022-09-25T14:23:34;13.30;45.00
5980;DHT22;3016;50.308;8.258;2022-09-25T14:26:48;13.30;31.80
5980;DHT22;3016;50.308;8.258;2022-09-25T14:29:51;13.20;24.00
5980;DHT22;3016;50.308;8.258;2022-09-25T14:33:03;13.20;21.30
